Enter the Airport ICAO Code

Search by Airport or City

Current Weather

MSLP | Monseñor Óscar Arnulfo Romero International Airport

San Salvador, El Salvador

Last Update 18 Minutes Ago

Sky with Few Clouds

Temperature of 28 ºC

Light Winds from North

Temperature

28 ºC

Dew Point Temperature

24 ºC

Relative Humidity

79.03 %

Wind Direction

North (010º, Ranging from 340º to 040º)

Wind Velocity

7 km/h (04 kt)

Gusts

None

Visibility

Greater than 10 Kilometers

Sea Level Pressure

1011 hPa (Hectopascals)

Layers of Clouds

5% to 30% of Sky Covered from 610 mts (2000 ft) Above Ground Level.

METAR MSLP 211323Z 01004KT 340V040 9999 FEW020 28/24 Q1011 NOSIG

Weather Forecast

MSLP | Monseñor Óscar Arnulfo Romero International Airport

San Salvador, El Salvador

Forecast valid for the next 22 Hours

From now on it is expected:

Sky with Few Clouds

Light to Moderate Winds from NorthEast

In 4 hours it is expected the begining of:

Partly Cloudy Sky

Light to Moderate Winds from SouthWest

In 10 hours it is expected the begining of:

Light Winds from Variable Directions

Maximum Temperature

33 ºC in 4 Hours

Minimum Temperature

23 ºC in 21 Hours

TAF MSLP 210925Z 2112/2212 03006KT 9999 FEW030 TX33/2118Z TN23/2211Z FM211800 21008KT SCT033 FEW037CB FM220000 VRB02KT 9999 FEW027 FEW040CB SCT070